createdAt,value
2023-03-07T00:01:51.656Z,65399.19
2023-03-07T00:06:57.141Z,65409.31
2023-03-07T00:12:02.972Z,65354.34
2023-03-07T00:17:07.405Z,65331.47
2023-03-07T00:22:14.556Z,65374.16
2023-03-07T00:27:20.724Z,65363.94
2023-03-07T00:32:25.892Z,65425.72
2023-03-07T00:37:30.968Z,65417.72
2023-03-07T00:42:36.926Z,65426.78
2023-03-07T00:47:41.450Z,65417.84
2023-03-07T00:52:46.093Z,65344.44
2023-03-07T00:57:52.738Z,65390.13
2023-03-07T01:03:02.246Z,65367.13
2023-03-07T01:08:06.896Z,65403.44
2023-03-07T01:13:13.790Z,65361.81
2023-03-07T01:18:18.610Z,65394.50
2023-03-07T01:23:23.526Z,65415.81
2023-03-07T01:28:29.836Z,65365.09
2023-03-07T01:33:34.601Z,65246.53
2023-03-07T01:38:39.725Z,65316.56
2023-03-07T01:43:46.103Z,65427.84
2023-03-07T01:48:59.421Z,65323.03
2023-03-07T01:54:07.574Z,65330.50
2023-03-07T01:59:15.483Z,65363.19
2023-03-07T02:04:24.206Z,65373.06
2023-03-07T02:09:30.354Z,65384.06
2023-03-07T02:14:36.792Z,65381.41
2023-03-07T02:19:55.516Z,65423.50
2023-03-07T02:25:03.940Z,65346.25
2023-03-07T02:30:12.627Z,65390.56
2023-03-07T02:35:19.710Z,65403.34
2023-03-07T02:40:30.929Z,65449.59
2023-03-07T02:45:37.296Z,65486.47
2023-03-07T02:50:42.044Z,65477.94
2023-03-07T02:55:47.449Z,65416.13
2023-03-07T03:00:53.343Z,65424.66
2023-03-07T03:05:57.919Z,65415.06
2023-03-07T03:11:02.397Z,65403.34
2023-03-07T03:16:09.296Z,65310.69
2023-03-07T03:21:15.051Z,65336.25
2023-03-07T03:26:19.750Z,65294.84
2023-03-07T03:31:25.964Z,65377.22
2023-03-07T03:36:30.414Z,65393.75
2023-03-07T03:41:39.774Z,65388.44
2023-03-07T03:46:46.023Z,65375.53
2023-03-07T03:51:50.164Z,65345.19
2023-03-07T03:56:55.928Z,65238.25
2023-03-07T04:02:04.254Z,65343.69
2023-03-07T04:07:12.356Z,65451.81
2023-03-07T04:12:20.024Z,65447.56
2023-03-07T04:17:29.282Z,65481.84
2023-03-07T04:22:37.193Z,65439.22
2023-03-07T04:27:44.994Z,65415.28
2023-03-07T04:32:54.206Z,65488.06
2023-03-07T04:38:02.624Z,65420.94
2023-03-07T04:43:10.289Z,65322.63
2023-03-07T04:48:20.689Z,65453.94
2023-03-07T04:53:28.808Z,65484.88
2023-03-07T04:58:39.232Z,65487.34
2023-03-07T05:03:48.191Z,65462.56
2023-03-07T05:08:56.384Z,65449.69
2023-03-07T05:14:03.331Z,65440.09
2023-03-07T05:19:10.868Z,65443.81
2023-03-07T05:24:17.990Z,65467.38
2023-03-07T05:29:24.728Z,65465.13
2023-03-07T05:34:32.305Z,65353.28
2023-03-07T05:39:39.673Z,65408.56
2023-03-07T05:44:47.602Z,65427.94
2023-03-07T05:49:56.167Z,65493.06
2023-03-07T05:55:03.315Z,65480.59
2023-03-07T06:00:13.317Z,65476.88
2023-03-07T06:05:31.492Z,65461.59
2023-03-07T06:10:40.723Z,65410.81
2023-03-07T06:15:52.780Z,65482.19
2023-03-07T06:21:04.762Z,65517.81
2023-03-07T06:26:16.652Z,65439.03
2023-03-07T06:31:27.039Z,65559.50
2023-03-07T06:36:36.945Z,65577.09
2023-03-07T06:41:44.477Z,65611.34
2023-03-07T06:46:53.729Z,65606.53
2023-03-07T06:52:04.110Z,65643.25
2023-03-07T06:57:12.385Z,65560.03
2023-03-07T07:02:20.591Z,65517.38
2023-03-07T07:07:29.933Z,65517.38
2023-03-07T07:12:37.733Z,65520.56
2023-03-07T07:17:45.127Z,65619.78
2023-03-07T07:22:54.603Z,65681.69
2023-03-07T07:28:00.137Z,65686.16
2023-03-07T07:33:07.284Z,65718.63
2023-03-07T07:38:16.454Z,65680.00
2023-03-07T07:43:23.941Z,65687.13
2023-03-07T07:48:41.744Z,65666.09
2023-03-07T07:53:50.722Z,65717.66
2023-03-07T07:58:58.335Z,65754.31
2023-03-07T08:04:06.769Z,65821.75
2023-03-07T08:09:16.567Z,65825.50
2023-03-07T08:14:27.518Z,65900.31
2023-03-07T08:19:35.861Z,65832.34
2023-03-07T08:24:44.933Z,65914.34
2023-03-07T08:29:52.577Z,65806.69
2023-03-07T08:34:58.008Z,65902.03
2023-03-07T08:40:06.490Z,65865.03
2023-03-07T08:45:14.179Z,65842.06
2023-03-07T08:51:15.156Z,65885.38
2023-03-07T08:56:34.771Z,65922.69
2023-03-07T09:01:41.780Z,65888.56
2023-03-07T09:06:49.466Z,65928.22
2023-03-07T09:11:57.495Z,65934.56
2023-03-07T09:17:05.179Z,65927.59
2023-03-07T09:22:12.874Z,65893.94
2023-03-07T09:27:22.060Z,65894.53
2023-03-07T09:32:28.898Z,65865.03
2023-03-07T09:37:37.215Z,65887.50
2023-03-07T09:42:57.967Z,65970.41
2023-03-07T09:48:37.145Z,65865.66
2023-03-07T09:53:47.129Z,66062.13
2023-03-07T09:59:06.635Z,66080.34
2023-03-07T10:04:27.824Z,66001.34
2023-03-07T10:09:35.978Z,65980.56
2023-03-07T10:15:05.111Z,66016.34
2023-03-07T10:20:24.919Z,66119.88
2023-03-07T10:25:37.788Z,66045.69
2023-03-07T10:30:45.486Z,65953.84
2023-03-07T10:35:57.260Z,66019.19
2023-03-07T10:41:10.317Z,66016.34
2023-03-07T10:46:27.096Z,66059.91
2023-03-07T10:51:46.649Z,65985.81
2023-03-07T10:57:10.165Z,65995.72
2023-03-07T11:02:36.573Z,66015.91
2023-03-07T11:07:41.359Z,66047.13
2023-03-07T11:12:47.400Z,66082.75
2023-03-07T11:17:55.821Z,66013.31
2023-03-07T11:23:24.008Z,65967.72
2023-03-07T11:28:34.130Z,65930.91
2023-03-07T11:34:00.328Z,66082.38
2023-03-07T11:39:13.873Z,65950.00
2023-03-07T11:44:36.032Z,66014.28
2023-03-07T11:49:55.907Z,66084.00
2023-03-07T11:55:16.878Z,66116.56
2023-03-07T12:00:34.110Z,66020.09
2023-03-07T12:05:52.663Z,66116.56
2023-03-07T12:11:10.246Z,66324.69
2023-03-07T12:16:27.936Z,66398.19
2023-03-07T12:22:01.063Z,66289.28
2023-03-07T12:27:14.526Z,66421.75
2023-03-07T12:32:27.370Z,66225.44
2023-03-07T12:37:42.031Z,65979.34
2023-03-07T12:42:57.384Z,66009.03
2023-03-07T12:48:12.554Z,65975.66
2023-03-07T12:53:23.778Z,66001.53
2023-03-07T12:58:41.206Z,66088.72
2023-03-07T13:03:57.545Z,65968.19
2023-03-07T13:09:05.988Z,65933.94
2023-03-07T13:14:35.265Z,66003.69
2023-03-07T13:19:55.246Z,66039.97
2023-03-07T13:25:22.451Z,66068.91
2023-03-07T13:30:29.210Z,66018.66
2023-03-07T13:35:58.225Z,65982.28
2023-03-07T13:41:05.415Z,65919.25
2023-03-07T13:46:31.977Z,65973.81
2023-03-07T13:51:38.094Z,66066.69
2023-03-07T13:56:47.441Z,66106.50
2023-03-07T14:01:59.483Z,66081.22
2023-03-07T14:07:13.324Z,66079.72
2023-03-07T14:12:31.295Z,66142.91
2023-03-07T14:17:53.802Z,66119.88
2023-03-07T14:23:21.788Z,66076.06
2023-03-07T14:28:30.725Z,66054.03
2023-03-07T14:33:42.904Z,66096.75
2023-03-07T14:38:51.871Z,66182.91
2023-03-07T14:44:10.352Z,66073.81
2023-03-07T14:49:31.575Z,66129.72
2023-03-07T14:54:40.322Z,66096.84
2023-03-07T15:00:07.423Z,66169.72
2023-03-07T15:05:18.823Z,66081.84
2023-03-07T15:10:34.005Z,65964.88
2023-03-07T15:15:47.368Z,65983.88
2023-03-07T15:20:55.960Z,65961.31
2023-03-07T15:26:05.955Z,65945.72
2023-03-07T15:31:15.787Z,65950.06
2023-03-07T15:36:28.495Z,65858.00
2023-03-07T15:41:36.214Z,65823.88
2023-03-07T15:46:47.064Z,65868.25
2023-03-07T15:51:55.762Z,65816.31
2023-03-07T15:57:05.337Z,65828.69
2023-03-07T16:02:42.777Z,65872.53
2023-03-07T16:07:50.734Z,65838.31
2023-03-07T16:12:56.622Z,65757.09
2023-03-07T16:18:03.425Z,65760.91
2023-03-07T16:23:12.680Z,65781.03
2023-03-07T16:28:17.086Z,65763.41
2023-03-07T16:33:23.009Z,65731.44
2023-03-07T16:38:27.561Z,65811.59
2023-03-07T16:43:37.535Z,65828.06
2023-03-07T16:48:43.687Z,65729.84
2023-03-07T16:53:49.407Z,65743.19
2023-03-07T16:58:54.617Z,65738.28
2023-03-07T17:04:00.359Z,65791.75
2023-03-07T17:09:05.033Z,65782.28
2023-03-07T17:14:14.426Z,65817.91
2023-03-07T17:19:28.405Z,65784.31
2023-03-07T17:24:33.074Z,65807.22
2023-03-07T17:29:41.706Z,65722.81
2023-03-07T17:34:47.659Z,65701.97
2023-03-07T17:39:52.151Z,65630.09
2023-03-07T17:44:57.436Z,65646.81
2023-03-07T17:50:05.537Z,65658.41
2023-03-07T17:55:11.154Z,65702.41
2023-03-07T18:00:16.193Z,65713.09
2023-03-07T18:05:21.966Z,65740.00
2023-03-07T18:10:26.689Z,65770.34
2023-03-07T18:15:31.016Z,65735.63
2023-03-07T18:20:37.277Z,65699.31
2023-03-07T18:25:41.984Z,65672.72
2023-03-07T18:30:48.968Z,65728.25
2023-03-07T18:35:56.361Z,65732.06
2023-03-07T18:41:08.616Z,65751.22
2023-03-07T18:46:15.806Z,65770.88
2023-03-07T18:51:25.189Z,65751.22
2023-03-07T18:56:30.147Z,65746.28
2023-03-07T19:01:35.808Z,65784.94
2023-03-07T19:06:45.159Z,65774.63
2023-03-07T19:11:49.747Z,65699.84
2023-03-07T19:16:54.312Z,65797.81
2023-03-07T19:22:00.849Z,65764.66
2023-03-07T19:27:05.642Z,65797.59
2023-03-07T19:32:10.065Z,65763.03
2023-03-07T19:37:16.153Z,65731.44
2023-03-07T19:42:20.647Z,65726.13
2023-03-07T19:47:24.935Z,65810.44
2023-03-07T19:52:30.659Z,65731.44
2023-03-07T19:57:36.308Z,65726.66
2023-03-07T20:02:40.713Z,65772.47
2023-03-07T20:07:46.553Z,65743.19
2023-03-07T20:12:53.030Z,65729.41
2023-03-07T20:17:57.355Z,65712.84
2023-03-07T20:23:03.441Z,65722.19
2023-03-07T20:28:08.406Z,65706.16
2023-03-07T20:33:12.733Z,65722.44
2023-03-07T20:38:18.484Z,65748.00
2023-03-07T20:43:23.143Z,65740.44
2023-03-07T20:48:27.522Z,65785.31
2023-03-07T20:53:33.489Z,65755.06
2023-03-07T20:58:37.881Z,65775.25
2023-03-07T21:03:42.188Z,65744.69
2023-03-07T21:08:48.660Z,65750.69
2023-03-07T21:13:53.075Z,65754.41
2023-03-07T21:19:01.282Z,65748.53
2023-03-07T21:24:08.044Z,65729.41
2023-03-07T21:29:14.077Z,65798.25
2023-03-07T21:34:18.135Z,65802.59
2023-03-07T21:39:24.273Z,65798.13
2023-03-07T21:44:28.658Z,65755.91
2023-03-07T21:49:34.075Z,65817.38
2023-03-07T21:54:39.815Z,65775.69
2023-03-07T21:59:44.082Z,65803.03
2023-03-07T22:04:48.473Z,65718.00
2023-03-07T22:09:54.211Z,65796.09
2023-03-07T22:14:58.566Z,65798.13
2023-03-07T22:20:03.041Z,65798.78
2023-03-07T22:25:09.604Z,65756.00
2023-03-07T22:30:14.938Z,65811.59
2023-03-07T22:35:19.439Z,65774.69
2023-03-07T22:40:25.385Z,65768.31
2023-03-07T22:45:29.705Z,65749.50
2023-03-07T22:50:34.169Z,65797.06
2023-03-07T22:55:42.816Z,65759.22
2023-03-07T23:00:47.074Z,65797.06
2023-03-07T23:05:51.449Z,65808.50
2023-03-07T23:11:03.628Z,65776.94
2023-03-07T23:16:10.757Z,65757.19
2023-03-07T23:21:17.010Z,65772.56
2023-03-07T23:26:25.905Z,65745.84
2023-03-07T23:31:35.152Z,65783.78
2023-03-07T23:36:39.617Z,65775.25
2023-03-07T23:41:45.339Z,65792.13
2023-03-07T23:46:50.043Z,65766.78
2023-03-07T23:51:54.281Z,65731.44
2023-03-07T23:56:59.976Z,65781.75
